sensor_id;sensor_type;location;lat;lon;timestamp;temperature;humidity
7004;DHT22;3542;48.812;9.146;2022-08-19T00:00:44;20.90;99.90
7004;DHT22;3542;48.812;9.146;2022-08-19T00:03:10;20.90;99.90
7004;DHT22;3542;48.812;9.146;2022-08-19T00:05:35;20.90;99.90
7004;DHT22;3542;48.812;9.146;2022-08-19T00:08:01;20.90;99.90
7004;DHT22;3542;48.812;9.146;2022-08-19T00:10:27;20.90;99.90
7004;DHT22;3542;48.812;9.146;2022-08-19T00:12:52;20.90;99.90
7004;DHT22;3542;48.812;9.146;2022-08-19T00:15:20;20.90;99.90
7004;DHT22;3542;48.812;9.146;2022-08-19T00:17:46;20.90;99.90
7004;DHT22;3542;48.812;9.146;2022-08-19T00:20:14;20.80;99.90
7004;DHT22;3542;48.812;9.146;2022-08-19T00:22:44;20.80;99.90
7004;DHT22;3542;48.812;9.146;2022-08-19T00:25:11;20.90;99.90
7004;DHT22;3542;48.812;9.146;2022-08-19T00:27:37;20.90;99.90
7004;DHT22;3542;48.812;9.146;2022-08-19T00:30:04;20.90;99.90
7004;DHT22;3542;48.812;9.146;2022-08-19T00:32:30;20.90;99.90
7004;DHT22;3542;48.812;9.146;2022-08-19T00:34:56;20.90;99.90
7004;DHT22;3542;48.812;9.146;2022-08-19T00:37:23;20.90;99.90
7004;DHT22;3542;48.812;9.146;2022-08-19T00:39:51;20.80;99.90
7004;DHT22;3542;48.812;9.146;2022-08-19T00:42:17;20.80;99.90
7004;DHT22;3542;48.812;9.146;2022-08-19T00:44:43;20.80;99.90
7004;DHT22;3542;48.812;9.146;2022-08-19T00:47:09;20.80;99.90
7004;DHT22;3542;48.812;9.146;2022-08-19T00:49:47;20.80;99.90
7004;DHT22;3542;48.812;9.146;2022-08-19T00:52:37;20.80;99.90
7004;DHT22;3542;48.812;9.146;2022-08-19T00:55:07;20.80;99.90
7004;DHT22;3542;48.812;9.146;2022-08-19T00:57:39;20.70;99.90
7004;DHT22;3542;48.812;9.146;2022-08-19T02:30:49;20.40;99.90
7004;DHT22;3542;48.812;9.146;2022-08-19T02:33:14;20.40;99.90
7004;DHT22;3542;48.812;9.146;2022-08-19T02:35:46;20.40;99.90
7004;DHT22;3542;48.812;9.146;2022-08-19T02:38:13;20.40;99.90
7004;DHT22;3542;48.812;9.146;2022-08-19T02:43:21;20.40;99.90
7004;DHT22;3542;48.812;9.146;2022-08-19T02:45:47;20.30;99.90
7004;DHT22;3542;48.812;9.146;2022-08-19T02:48:15;20.30;99.90
7004;DHT22;3542;48.812;9.146;2022-08-19T02:50:42;20.30;99.90
7004;DHT22;3542;48.812;9.146;2022-08-19T02:53:08;20.30;99.90
7004;DHT22;3542;48.812;9.146;2022-08-19T02:55:34;20.30;99.90
7004;DHT22;3542;48.812;9.146;2022-08-19T02:58:00;20.30;99.90
7004;DHT22;3542;48.812;9.146;2022-08-19T03:00:26;20.20;99.90
7004;DHT22;3542;48.812;9.146;2022-08-19T03:02:52;20.20;99.90
7004;DHT22;3542;48.812;9.146;2022-08-19T03:05:17;20.10;99.90
7004;DHT22;3542;48.812;9.146;2022-08-19T03:07:43;20.20;99.90
7004;DHT22;3542;48.812;9.146;2022-08-19T03:10:09;20.10;99.90
7004;DHT22;3542;48.812;9.146;2022-08-19T03:12:37;20.10;99.90
7004;DHT22;3542;48.812;9.146;2022-08-19T03:15:07;20.00;99.90
7004;DHT22;3542;48.812;9.146;2022-08-19T03:17:34;20.00;99.90
7004;DHT22;3542;48.812;9.146;2022-08-19T03:20:00;20.00;99.90
7004;DHT22;3542;48.812;9.146;2022-08-19T03:22:26;19.90;99.90
7004;DHT22;3542;48.812;9.146;2022-08-19T03:24:51;19.90;99.90
7004;DHT22;3542;48.812;9.146;2022-08-19T03:27:17;19.90;99.90
7004;DHT22;3542;48.812;9.146;2022-08-19T03:29:43;19.90;99.90
7004;DHT22;3542;48.812;9.146;2022-08-19T03:32:09;19.90;99.90
7004;DHT22;3542;48.812;9.146;2022-08-19T03:34:37;19.80;99.90
7004;DHT22;3542;48.812;9.146;2022-08-19T03:37:08;19.80;99.90
7004;DHT22;3542;48.812;9.146;2022-08-19T03:39:35;19.70;99.90
7004;DHT22;3542;48.812;9.146;2022-08-19T03:42:01;19.70;99.90
7004;DHT22;3542;48.812;9.146;2022-08-19T03:44:29;19.60;99.90
7004;DHT22;3542;48.812;9.146;2022-08-19T03:46:56;19.60;99.90
7004;DHT22;3542;48.812;9.146;2022-08-19T03:49:25;19.60;99.90
7004;DHT22;3542;48.812;9.146;2022-08-19T03:51:52;19.60;99.90
7004;DHT22;3542;48.812;9.146;2022-08-19T03:54:21;19.60;99.90
7004;DHT22;3542;48.812;9.146;2022-08-19T03:56:49;19.60;99.90
7004;DHT22;3542;48.812;9.146;2022-08-19T03:59:30;19.50;99.90
7004;DHT22;3542;48.812;9.146;2022-08-19T04:01:58;19.50;99.90
7004;DHT22;3542;48.812;9.146;2022-08-19T04:04:24;19.50;99.90
7004;DHT22;3542;48.812;9.146;2022-08-19T04:06:50;19.50;99.90
7004;DHT22;3542;48.812;9.146;2022-08-19T04:09:18;19.50;99.90
7004;DHT22;3542;48.812;9.146;2022-08-19T04:11:49;19.50;99.90
7004;DHT22;3542;48.812;9.146;2022-08-19T04:14:18;19.50;99.90
7004;DHT22;3542;48.812;9.146;2022-08-19T04:16:45;19.60;99.90
7004;DHT22;3542;48.812;9.146;2022-08-19T04:19:12;19.50;99.90
7004;DHT22;3542;48.812;9.146;2022-08-19T04:21:37;19.50;99.90
7004;DHT22;3542;48.812;9.146;2022-08-19T04:24:03;19.60;99.90
7004;DHT22;3542;48.812;9.146;2022-08-19T04:26:32;19.60;99.90
7004;DHT22;3542;48.812;9.146;2022-08-19T04:29:04;19.60;99.90
7004;DHT22;3542;48.812;9.146;2022-08-19T04:31:31;19.60;99.90
7004;DHT22;3542;48.812;9.146;2022-08-19T04:34:01;19.60;99.90
7004;DHT22;3542;48.812;9.146;2022-08-19T04:36:30;19.70;99.90
7004;DHT22;3542;48.812;9.146;2022-08-19T04:38:58;19.70;99.90
7004;DHT22;3542;48.812;9.146;2022-08-19T04:41:25;19.70;99.90
7004;DHT22;3542;48.812;9.146;2022-08-19T04:44:10;19.70;99.90
7004;DHT22;3542;48.812;9.146;2022-08-19T04:46:36;19.70;99.90
7004;DHT22;3542;48.812;9.146;2022-08-19T04:49:03;19.70;99.90
7004;DHT22;3542;48.812;9.146;2022-08-19T04:51:31;19.80;99.90
7004;DHT22;3542;48.812;9.146;2022-08-19T04:53:57;19.70;99.90
7004;DHT22;3542;48.812;9.146;2022-08-19T04:56:24;19.70;99.90
7004;DHT22;3542;48.812;9.146;2022-08-19T04:58:52;19.80;99.90
7004;DHT22;3542;48.812;9.146;2022-08-19T05:01:21;19.80;99.90
7004;DHT22;3542;48.812;9.146;2022-08-19T05:03:46;19.70;99.90
7004;DHT22;3542;48.812;9.146;2022-08-19T05:06:14;19.80;99.90
7004;DHT22;3542;48.812;9.146;2022-08-19T05:08:41;19.80;99.90
7004;DHT22;3542;48.812;9.146;2022-08-19T05:11:24;19.80;99.90
7004;DHT22;3542;48.812;9.146;2022-08-19T05:13:51;19.80;99.90
7004;DHT22;3542;48.812;9.146;2022-08-19T05:16:19;19.70;99.90
7004;DHT22;3542;48.812;9.146;2022-08-19T05:18:45;19.70;99.90
7004;DHT22;3542;48.812;9.146;2022-08-19T05:21:30;19.80;99.90
7004;DHT22;3542;48.812;9.146;2022-08-19T05:24:16;19.80;99.90
7004;DHT22;3542;48.812;9.146;2022-08-19T05:26:45;19.80;99.90
7004;DHT22;3542;48.812;9.146;2022-08-19T05:29:13;19.80;99.90
7004;DHT22;3542;48.812;9.146;2022-08-19T05:31:39;19.80;99.90
7004;DHT22;3542;48.812;9.146;2022-08-19T05:34:05;19.90;99.90
7004;DHT22;3542;48.812;9.146;2022-08-19T05:36:43;19.90;99.90
7004;DHT22;3542;48.812;9.146;2022-08-19T05:39:13;19.90;99.90
7004;DHT22;3542;48.812;9.146;2022-08-19T05:41:49;20.00;99.90
7004;DHT22;3542;48.812;9.146;2022-08-19T05:44:16;20.00;99.90
7004;DHT22;3542;48.812;9.146;2022-08-19T05:46:44;20.00;99.90
7004;DHT22;3542;48.812;9.146;2022-08-19T05:49:13;20.00;99.90
7004;DHT22;3542;48.812;9.146;2022-08-19T05:51:39;20.00;99.90
7004;DHT22;3542;48.812;9.146;2022-08-19T05:54:05;20.00;99.90
7004;DHT22;3542;48.812;9.146;2022-08-19T05:56:33;20.00;99.90
7004;DHT22;3542;48.812;9.146;2022-08-19T05:59:03;20.00;99.90
7004;DHT22;3542;48.812;9.146;2022-08-19T06:01:32;20.00;99.90
7004;DHT22;3542;48.812;9.146;2022-08-19T06:03:57;20.00;99.90
7004;DHT22;3542;48.812;9.146;2022-08-19T06:06:23;20.00;99.90
7004;DHT22;3542;48.812;9.146;2022-08-19T06:08:48;20.00;99.90
7004;DHT22;3542;48.812;9.146;2022-08-19T06:11:17;20.00;99.90
7004;DHT22;3542;48.812;9.146;2022-08-19T06:13:44;20.00;99.90
7004;DHT22;3542;48.812;9.146;2022-08-19T06:16:12;20.00;99.90
7004;DHT22;3542;48.812;9.146;2022-08-19T06:18:38;20.10;99.90
7004;DHT22;3542;48.812;9.146;2022-08-19T06:21:03;20.10;99.90
7004;DHT22;3542;48.812;9.146;2022-08-19T06:23:29;20.10;99.90
7004;DHT22;3542;48.812;9.146;2022-08-19T06:25:55;20.10;99.90
7004;DHT22;3542;48.812;9.146;2022-08-19T06:28:21;20.10;99.90
7004;DHT22;3542;48.812;9.146;2022-08-19T06:30:49;20.10;99.90
7004;DHT22;3542;48.812;9.146;2022-08-19T06:33:15;20.10;99.90
7004;DHT22;3542;48.812;9.146;2022-08-19T06:35:41;20.10;99.90
7004;DHT22;3542;48.812;9.146;2022-08-19T06:38:06;20.10;99.90
7004;DHT22;3542;48.812;9.146;2022-08-19T06:40:32;20.10;99.90
7004;DHT22;3542;48.812;9.146;2022-08-19T06:42:57;20.20;99.90
7004;DHT22;3542;48.812;9.146;2022-08-19T06:45:25;20.20;99.90
7004;DHT22;3542;48.812;9.146;2022-08-19T06:47:52;20.20;99.90
7004;DHT22;3542;48.812;9.146;2022-08-19T06:50:19;20.10;99.90
7004;DHT22;3542;48.812;9.146;2022-08-19T06:52:44;20.00;99.90
7004;DHT22;3542;48.812;9.146;2022-08-19T06:55:11;20.00;99.90
7004;DHT22;3542;48.812;9.146;2022-08-19T06:57:36;20.00;99.90
7004;DHT22;3542;48.812;9.146;2022-08-19T07:00:04;19.90;99.90
7004;DHT22;3542;48.812;9.146;2022-08-19T07:02:29;19.90;99.90
7004;DHT22;3542;48.812;9.146;2022-08-19T07:04:55;19.90;99.90
7004;DHT22;3542;48.812;9.146;2022-08-19T07:07:23;19.90;99.90
7004;DHT22;3542;48.812;9.146;2022-08-19T07:09:51;19.80;99.90
7004;DHT22;3542;48.812;9.146;2022-08-19T07:12:18;19.80;99.90
7004;DHT22;3542;48.812;9.146;2022-08-19T07:14:43;19.80;99.90
7004;DHT22;3542;48.812;9.146;2022-08-19T07:17:11;19.80;99.90
7004;DHT22;3542;48.812;9.146;2022-08-19T07:19:38;19.80;99.90
7004;DHT22;3542;48.812;9.146;2022-08-19T07:22:06;19.80;99.90
7004;DHT22;3542;48.812;9.146;2022-08-19T07:24:33;19.80;99.90
7004;DHT22;3542;48.812;9.146;2022-08-19T07:27:01;19.80;99.90
7004;DHT22;3542;48.812;9.146;2022-08-19T07:29:29;19.80;99.90
7004;DHT22;3542;48.812;9.146;2022-08-19T07:31:56;19.80;99.90
7004;DHT22;3542;48.812;9.146;2022-08-19T07:34:24;19.80;99.90
7004;DHT22;3542;48.812;9.146;2022-08-19T07:36:50;19.80;99.90
7004;DHT22;3542;48.812;9.146;2022-08-19T07:39:22;19.70;99.90
7004;DHT22;3542;48.812;9.146;2022-08-19T07:41:48;19.80;99.90
7004;DHT22;3542;48.812;9.146;2022-08-19T07:44:14;19.80;99.90
7004;DHT22;3542;48.812;9.146;2022-08-19T07:46:43;19.80;99.90
7004;DHT22;3542;48.812;9.146;2022-08-19T07:49:10;19.80;99.90
7004;DHT22;3542;48.812;9.146;2022-08-19T07:51:45;19.80;99.90
7004;DHT22;3542;48.812;9.146;2022-08-19T07:54:11;19.80;99.90
7004;DHT22;3542;48.812;9.146;2022-08-19T07:56:37;19.90;99.90
7004;DHT22;3542;48.812;9.146;2022-08-19T07:59:02;20.00;99.90
7004;DHT22;3542;48.812;9.146;2022-08-19T08:01:28;20.00;99.90
7004;DHT22;3542;48.812;9.146;2022-08-19T08:03:55;20.00;99.90
7004;DHT22;3542;48.812;9.146;2022-08-19T08:06:39;20.00;99.90
7004;DHT22;3542;48.812;9.146;2022-08-19T08:09:33;20.00;99.90
7004;DHT22;3542;48.812;9.146;2022-08-19T08:12:22;20.00;99.90
7004;DHT22;3542;48.812;9.146;2022-08-19T08:14:52;20.00;99.90
7004;DHT22;3542;48.812;9.146;2022-08-19T08:17:20;20.00;99.90
7004;DHT22;3542;48.812;9.146;2022-08-19T08:19:46;20.10;99.90
7004;DHT22;3542;48.812;9.146;2022-08-19T08:22:15;20.10;99.90
7004;DHT22;3542;48.812;9.146;2022-08-19T08:25:04;20.10;99.90
7004;DHT22;3542;48.812;9.146;2022-08-19T08:27:30;20.20;99.90
7004;DHT22;3542;48.812;9.146;2022-08-19T08:29:56;20.30;99.90
7004;DHT22;3542;48.812;9.146;2022-08-19T08:32:22;20.30;99.90
7004;DHT22;3542;48.812;9.146;2022-08-19T08:34:48;20.30;99.90
7004;DHT22;3542;48.812;9.146;2022-08-19T08:37:14;20.30;99.90
7004;DHT22;3542;48.812;9.146;2022-08-19T08:39:39;20.20;99.90
7004;DHT22;3542;48.812;9.146;2022-08-19T08:44:47;20.30;99.90
7004;DHT22;3542;48.812;9.146;2022-08-19T08:47:18;20.30;99.90
7004;DHT22;3542;48.812;9.146;2022-08-19T08:49:52;20.30;99.90
7004;DHT22;3542;48.812;9.146;2022-08-19T08:52:23;20.20;99.90
7004;DHT22;3542;48.812;9.146;2022-08-19T08:54:53;20.10;99.90
7004;DHT22;3542;48.812;9.146;2022-08-19T08:59:51;20.10;99.90
7004;DHT22;3542;48.812;9.146;2022-08-19T09:02:18;20.10;99.90
7004;DHT22;3542;48.812;9.146;2022-08-19T09:04:45;20.10;99.90
7004;DHT22;3542;48.812;9.146;2022-08-19T09:07:39;20.10;99.90
7004;DHT22;3542;48.812;9.146;2022-08-19T09:10:33;20.10;99.90
7004;DHT22;3542;48.812;9.146;2022-08-19T09:13:39;20.10;99.90
7004;DHT22;3542;48.812;9.146;2022-08-19T09:16:11;20.20;99.90
7004;DHT22;3542;48.812;9.146;2022-08-19T09:18:50;20.30;99.90
7004;DHT22;3542;48.812;9.146;2022-08-19T09:21:21;20.30;99.90
7004;DHT22;3542;48.812;9.146;2022-08-19T09:23:48;20.40;99.90
7004;DHT22;3542;48.812;9.146;2022-08-19T09:26:16;20.50;99.90
7004;DHT22;3542;48.812;9.146;2022-08-19T09:28:44;20.60;99.90
7004;DHT22;3542;48.812;9.146;2022-08-19T09:31:17;20.80;99.90
7004;DHT22;3542;48.812;9.146;2022-08-19T09:33:43;20.80;99.90
7004;DHT22;3542;48.812;9.146;2022-08-19T09:36:11;20.90;99.90
7004;DHT22;3542;48.812;9.146;2022-08-19T09:38:37;21.00;99.90
7004;DHT22;3542;48.812;9.146;2022-08-19T09:41:09;21.10;99.90
7004;DHT22;3542;48.812;9.146;2022-08-19T09:43:36;21.20;99.90
7004;DHT22;3542;48.812;9.146;2022-08-19T09:46:03;21.20;99.90
7004;DHT22;3542;48.812;9.146;2022-08-19T09:48:32;21.30;99.90
7004;DHT22;3542;48.812;9.146;2022-08-19T09:51:25;21.40;99.90
7004;DHT22;3542;48.812;9.146;2022-08-19T09:53:52;21.40;99.90
7004;DHT22;3542;48.812;9.146;2022-08-19T09:56:20;21.50;99.90
7004;DHT22;3542;48.812;9.146;2022-08-19T09:58:47;21.40;99.90
7004;DHT22;3542;48.812;9.146;2022-08-19T10:01:27;21.50;99.90
7004;DHT22;3542;48.812;9.146;2022-08-19T10:03:56;21.40;99.90
7004;DHT22;3542;48.812;9.146;2022-08-19T10:06:25;21.40;99.90
7004;DHT22;3542;48.812;9.146;2022-08-19T10:08:51;21.50;99.90
7004;DHT22;3542;48.812;9.146;2022-08-19T10:11:19;21.40;99.90
7004;DHT22;3542;48.812;9.146;2022-08-19T10:13:46;21.50;99.90
7004;DHT22;3542;48.812;9.146;2022-08-19T10:16:15;21.50;99.90
7004;DHT22;3542;48.812;9.146;2022-08-19T10:18:41;21.50;99.90
7004;DHT22;3542;48.812;9.146;2022-08-19T10:21:14;21.60;99.90
7004;DHT22;3542;48.812;9.146;2022-08-19T10:23:43;21.70;99.90
7004;DHT22;3542;48.812;9.146;2022-08-19T10:26:15;21.70;99.90
7004;DHT22;3542;48.812;9.146;2022-08-19T10:28:41;21.80;99.90
7004;DHT22;3542;48.812;9.146;2022-08-19T10:31:08;21.90;99.90
7004;DHT22;3542;48.812;9.146;2022-08-19T10:33:35;22.00;99.90
7004;DHT22;3542;48.812;9.146;2022-08-19T10:36:07;22.10;99.90
7004;DHT22;3542;48.812;9.146;2022-08-19T10:38:33;22.10;99.90
7004;DHT22;3542;48.812;9.146;2022-08-19T10:41:07;22.20;99.90
7004;DHT22;3542;48.812;9.146;2022-08-19T10:43:33;22.20;99.90
7004;DHT22;3542;48.812;9.146;2022-08-19T10:46:02;22.30;99.90
7004;DHT22;3542;48.812;9.146;2022-08-19T10:48:29;22.40;99.90
7004;DHT22;3542;48.812;9.146;2022-08-19T10:50:54;22.50;99.90
7004;DHT22;3542;48.812;9.146;2022-08-19T10:53:40;22.70;99.90
7004;DHT22;3542;48.812;9.146;2022-08-19T10:56:06;22.70;99.90
7004;DHT22;3542;48.812;9.146;2022-08-19T10:58:50;22.60;99.90
7004;DHT22;3542;48.812;9.146;2022-08-19T11:01:15;22.40;99.90
7004;DHT22;3542;48.812;9.146;2022-08-19T11:03:41;22.30;99.90
7004;DHT22;3542;48.812;9.146;2022-08-19T11:06:08;22.30;99.90
7004;DHT22;3542;48.812;9.146;2022-08-19T11:08:35;22.40;99.90
7004;DHT22;3542;48.812;9.146;2022-08-19T11:11:03;22.30;99.90
7004;DHT22;3542;48.812;9.146;2022-08-19T11:13:31;22.40;99.90
7004;DHT22;3542;48.812;9.146;2022-08-19T11:16:01;22.60;99.90
7004;DHT22;3542;48.812;9.146;2022-08-19T11:18:27;22.70;99.90
7004;DHT22;3542;48.812;9.146;2022-08-19T11:20:53;22.90;99.90
7004;DHT22;3542;48.812;9.146;2022-08-19T11:23:19;23.10;99.90
7004;DHT22;3542;48.812;9.146;2022-08-19T11:25:45;23.20;99.90
7004;DHT22;3542;48.812;9.146;2022-08-19T11:28:11;23.20;99.90
7004;DHT22;3542;48.812;9.146;2022-08-19T11:30:38;23.40;99.90
7004;DHT22;3542;48.812;9.146;2022-08-19T11:33:03;23.40;99.90
7004;DHT22;3542;48.812;9.146;2022-08-19T11:35:29;23.50;99.90
7004;DHT22;3542;48.812;9.146;2022-08-19T11:37:54;23.50;99.90
7004;DHT22;3542;48.812;9.146;2022-08-19T11:40:23;23.40;99.90
7004;DHT22;3542;48.812;9.146;2022-08-19T11:42:48;23.40;99.90
7004;DHT22;3542;48.812;9.146;2022-08-19T11:45:23;23.50;99.90
7004;DHT22;3542;48.812;9.146;2022-08-19T11:47:49;23.50;99.90
7004;DHT22;3542;48.812;9.146;2022-08-19T11:50:16;23.50;99.90
7004;DHT22;3542;48.812;9.146;2022-08-19T11:52:42;23.60;99.90
7004;DHT22;3542;48.812;9.146;2022-08-19T11:55:08;23.50;99.90
7004;DHT22;3542;48.812;9.146;2022-08-19T11:57:33;23.60;99.90
7004;DHT22;3542;48.812;9.146;2022-08-19T11:59:59;23.60;99.90
7004;DHT22;3542;48.812;9.146;2022-08-19T12:02:24;23.50;99.90
7004;DHT22;3542;48.812;9.146;2022-08-19T12:04:50;23.50;99.90
7004;DHT22;3542;48.812;9.146;2022-08-19T12:07:16;23.50;99.90
7004;DHT22;3542;48.812;9.146;2022-08-19T12:09:42;23.60;99.90
7004;DHT22;3542;48.812;9.146;2022-08-19T12:12:08;23.50;99.90
7004;DHT22;3542;48.812;9.146;2022-08-19T12:14:34;23.60;99.90
7004;DHT22;3542;48.812;9.146;2022-08-19T12:16:59;23.60;99.90
7004;DHT22;3542;48.812;9.146;2022-08-19T12:19:25;23.70;99.90
7004;DHT22;3542;48.812;9.146;2022-08-19T12:21:51;23.80;99.90
7004;DHT22;3542;48.812;9.146;2022-08-19T12:24:18;23.70;99.90
7004;DHT22;3542;48.812;9.146;2022-08-19T12:26:48;23.70;99.90
7004;DHT22;3542;48.812;9.146;2022-08-19T12:29:15;23.70;99.90
7004;DHT22;3542;48.812;9.146;2022-08-19T12:31:40;23.60;99.90
7004;DHT22;3542;48.812;9.146;2022-08-19T12:34:06;23.60;99.90
7004;DHT22;3542;48.812;9.146;2022-08-19T12:36:32;23.60;99.90
7004;DHT22;3542;48.812;9.146;2022-08-19T12:38:58;23.50;99.90
7004;DHT22;3542;48.812;9.146;2022-08-19T12:41:24;23.50;99.90
7004;DHT22;3542;48.812;9.146;2022-08-19T12:43:50;23.40;99.90
7004;DHT22;3542;48.812;9.146;2022-08-19T12:46:17;23.50;99.90
7004;DHT22;3542;48.812;9.146;2022-08-19T12:48:44;23.60;99.90
7004;DHT22;3542;48.812;9.146;2022-08-19T12:51:14;23.60;99.90
7004;DHT22;3542;48.812;9.146;2022-08-19T12:53:40;23.80;99.90
7004;DHT22;3542;48.812;9.146;2022-08-19T12:56:07;24.00;99.90
7004;DHT22;3542;48.812;9.146;2022-08-19T12:58:33;24.10;99.90
7004;DHT22;3542;48.812;9.146;2022-08-19T13:01:05;24.20;99.90
7004;DHT22;3542;48.812;9.146;2022-08-19T13:03:30;24.20;99.90
7004;DHT22;3542;48.812;9.146;2022-08-19T13:05:56;24.10;99.90
7004;DHT22;3542;48.812;9.146;2022-08-19T13:08:22;24.10;99.90
7004;DHT22;3542;48.812;9.146;2022-08-19T13:10:48;24.10;99.90
7004;DHT22;3542;48.812;9.146;2022-08-19T13:13:13;24.00;99.90
7004;DHT22;3542;48.812;9.146;2022-08-19T13:15:40;23.90;99.90
7004;DHT22;3542;48.812;9.146;2022-08-19T13:18:08;23.80;99.90
7004;DHT22;3542;48.812;9.146;2022-08-19T13:20:35;23.80;99.90
7004;DHT22;3542;48.812;9.146;2022-08-19T13:23:01;23.80;99.90
7004;DHT22;3542;48.812;9.146;2022-08-19T13:25:27;23.70;99.90
7004;DHT22;3542;48.812;9.146;2022-08-19T13:27:52;23.60;99.90
7004;DHT22;3542;48.812;9.146;2022-08-19T13:30:20;23.60;99.90
7004;DHT22;3542;48.812;9.146;2022-08-19T13:33:04;23.60;99.90
7004;DHT22;3542;48.812;9.146;2022-08-19T13:35:36;23.40;99.90
7004;DHT22;3542;48.812;9.146;2022-08-19T13:38:02;23.30;99.90
7004;DHT22;3542;48.812;9.146;2022-08-19T13:40:30;23.20;99.90
7004;DHT22;3542;48.812;9.146;2022-08-19T13:42:56;22.90;99.90
7004;DHT22;3542;48.812;9.146;2022-08-19T13:45:24;22.70;99.90
7004;DHT22;3542;48.812;9.146;2022-08-19T13:47:53;22.50;99.90
7004;DHT22;3542;48.812;9.146;2022-08-19T13:50:22;22.40;99.90
7004;DHT22;3542;48.812;9.146;2022-08-19T13:52:51;22.40;99.90
7004;DHT22;3542;48.812;9.146;2022-08-19T13:55:17;22.20;99.90
7004;DHT22;3542;48.812;9.146;2022-08-19T13:57:43;22.00;99.90
7004;DHT22;3542;48.812;9.146;2022-08-19T14:00:15;21.80;99.90
7004;DHT22;3542;48.812;9.146;2022-08-19T14:02:44;21.60;99.90
7004;DHT22;3542;48.812;9.146;2022-08-19T14:05:12;21.50;99.90
7004;DHT22;3542;48.812;9.146;2022-08-19T14:07:38;21.50;99.90
7004;DHT22;3542;48.812;9.146;2022-08-19T14:10:07;21.40;99.90
7004;DHT22;3542;48.812;9.146;2022-08-19T14:12:33;21.40;99.90
7004;DHT22;3542;48.812;9.146;2022-08-19T14:14:59;21.50;99.90
7004;DHT22;3542;48.812;9.146;2022-08-19T14:17:25;21.50;99.90
7004;DHT22;3542;48.812;9.146;2022-08-19T14:19:58;21.50;99.90
7004;DHT22;3542;48.812;9.146;2022-08-19T14:22:24;21.50;99.90
7004;DHT22;3542;48.812;9.146;2022-08-19T14:24:49;21.60;99.90
7004;DHT22;3542;48.812;9.146;2022-08-19T14:27:15;21.70;99.90
7004;DHT22;3542;48.812;9.146;2022-08-19T14:29:41;21.70;99.90
7004;DHT22;3542;48.812;9.146;2022-08-19T14:32:07;21.80;99.90
7004;DHT22;3542;48.812;9.146;2022-08-19T14:34:32;21.90;99.90
7004;DHT22;3542;48.812;9.146;2022-08-19T14:36:59;22.00;99.90
7004;DHT22;3542;48.812;9.146;2022-08-19T14:39:25;22.10;99.90
7004;DHT22;3542;48.812;9.146;2022-08-19T14:41:50;22.20;99.90
7004;DHT22;3542;48.812;9.146;2022-08-19T14:44:16;22.30;99.90
7004;DHT22;3542;48.812;9.146;2022-08-19T14:46:41;22.30;99.90
7004;DHT22;3542;48.812;9.146;2022-08-19T14:49:07;22.40;99.90
7004;DHT22;3542;48.812;9.146;2022-08-19T14:51:33;22.40;99.90
7004;DHT22;3542;48.812;9.146;2022-08-19T14:53:59;22.40;99.90
7004;DHT22;3542;48.812;9.146;2022-08-19T14:56:27;22.40;99.90
7004;DHT22;3542;48.812;9.146;2022-08-19T14:58:54;22.40;99.90
7004;DHT22;3542;48.812;9.146;2022-08-19T15:01:23;22.40;99.90
7004;DHT22;3542;48.812;9.146;2022-08-19T15:03:50;22.40;99.90
7004;DHT22;3542;48.812;9.146;2022-08-19T15:06:18;22.50;99.90
7004;DHT22;3542;48.812;9.146;2022-08-19T15:08:43;22.60;99.90
7004;DHT22;3542;48.812;9.146;2022-08-19T15:11:15;22.70;99.90
7004;DHT22;3542;48.812;9.146;2022-08-19T15:13:42;22.90;99.90
7004;DHT22;3542;48.812;9.146;2022-08-19T15:16:09;23.00;99.90
7004;DHT22;3542;48.812;9.146;2022-08-19T15:18:35;23.10;99.90
7004;DHT22;3542;48.812;9.146;2022-08-19T15:21:02;23.20;99.90
7004;DHT22;3542;48.812;9.146;2022-08-19T15:23:28;23.20;99.90
7004;DHT22;3542;48.812;9.146;2022-08-19T15:25:54;23.30;99.90
7004;DHT22;3542;48.812;9.146;2022-08-19T15:28:24;23.30;99.90
7004;DHT22;3542;48.812;9.146;2022-08-19T15:30:49;23.40;99.90
7004;DHT22;3542;48.812;9.146;2022-08-19T15:33:15;23.40;99.90
7004;DHT22;3542;48.812;9.146;2022-08-19T15:35:46;23.40;99.90
7004;DHT22;3542;48.812;9.146;2022-08-19T15:38:12;23.30;99.90
7004;DHT22;3542;48.812;9.146;2022-08-19T15:40:39;23.30;99.90
7004;DHT22;3542;48.812;9.146;2022-08-19T15:43:05;23.30;99.90
7004;DHT22;3542;48.812;9.146;2022-08-19T15:45:31;23.30;99.90
7004;DHT22;3542;48.812;9.146;2022-08-19T15:48:00;23.40;99.90
7004;DHT22;3542;48.812;9.146;2022-08-19T15:50:27;23.50;99.90
7004;DHT22;3542;48.812;9.146;2022-08-19T15:52:56;23.50;99.90
7004;DHT22;3542;48.812;9.146;2022-08-19T15:55:25;23.60;99.90
7004;DHT22;3542;48.812;9.146;2022-08-19T15:57:51;23.50;99.90
7004;DHT22;3542;48.812;9.146;2022-08-19T16:00:35;23.60;99.90
7004;DHT22;3542;48.812;9.146;2022-08-19T16:03:20;23.50;99.90
7004;DHT22;3542;48.812;9.146;2022-08-19T16:06:04;23.50;99.90
7004;DHT22;3542;48.812;9.146;2022-08-19T16:08:49;23.50;99.90
7004;DHT22;3542;48.812;9.146;2022-08-19T16:11:18;23.60;99.90
7004;DHT22;3542;48.812;9.146;2022-08-19T16:13:46;23.60;99.90
7004;DHT22;3542;48.812;9.146;2022-08-19T16:16:26;23.60;99.90
7004;DHT22;3542;48.812;9.146;2022-08-19T16:18:56;23.50;99.90
7004;DHT22;3542;48.812;9.146;2022-08-19T16:21:24;23.40;99.90
7004;DHT22;3542;48.812;9.146;2022-08-19T16:23:51;23.20;99.90
7004;DHT22;3542;48.812;9.146;2022-08-19T16:26:18;23.10;99.90
7004;DHT22;3542;48.812;9.146;2022-08-19T16:28:44;23.00;99.90
7004;DHT22;3542;48.812;9.146;2022-08-19T16:31:12;22.80;99.90
7004;DHT22;3542;48.812;9.146;2022-08-19T16:33:37;22.70;99.90
7004;DHT22;3542;48.812;9.146;2022-08-19T16:36:04;22.50;99.90
7004;DHT22;3542;48.812;9.146;2022-08-19T16:38:31;22.30;99.90
7004;DHT22;3542;48.812;9.146;2022-08-19T16:40:57;22.10;99.90
7004;DHT22;3542;48.812;9.146;2022-08-19T16:43:26;22.00;99.90
7004;DHT22;3542;48.812;9.146;2022-08-19T16:45:53;21.90;99.90
7004;DHT22;3542;48.812;9.146;2022-08-19T16:48:24;21.80;99.90
7004;DHT22;3542;48.812;9.146;2022-08-19T16:50:51;21.80;99.90
7004;DHT22;3542;48.812;9.146;2022-08-19T16:53:19;21.70;99.90
7004;DHT22;3542;48.812;9.146;2022-08-19T16:55:47;21.70;99.90
7004;DHT22;3542;48.812;9.146;2022-08-19T16:58:16;21.70;99.90
7004;DHT22;3542;48.812;9.146;2022-08-19T17:00:43;21.70;99.90
7004;DHT22;3542;48.812;9.146;2022-08-19T17:03:09;21.70;99.90
7004;DHT22;3542;48.812;9.146;2022-08-19T17:05:46;21.60;99.90
7004;DHT22;3542;48.812;9.146;2022-08-19T17:08:13;21.70;99.90
7004;DHT22;3542;48.812;9.146;2022-08-19T17:10:41;21.70;99.90
7004;DHT22;3542;48.812;9.146;2022-08-19T17:13:07;21.70;99.90
7004;DHT22;3542;48.812;9.146;2022-08-19T17:15:32;21.70;99.90
7004;DHT22;3542;48.812;9.146;2022-08-19T17:18:02;21.70;99.90
7004;DHT22;3542;48.812;9.146;2022-08-19T17:20:29;21.70;99.90
7004;DHT22;3542;48.812;9.146;2022-08-19T17:22:56;21.70;99.90
7004;DHT22;3542;48.812;9.146;2022-08-19T17:25:27;21.70;99.90
7004;DHT22;3542;48.812;9.146;2022-08-19T17:27:53;21.60;99.90
7004;DHT22;3542;48.812;9.146;2022-08-19T17:30:20;21.60;99.90
7004;DHT22;3542;48.812;9.146;2022-08-19T17:32:46;21.60;99.90
7004;DHT22;3542;48.812;9.146;2022-08-19T17:35:14;21.50;99.90
7004;DHT22;3542;48.812;9.146;2022-08-19T17:37:47;21.50;99.90
7004;DHT22;3542;48.812;9.146;2022-08-19T17:40:16;21.50;99.90
7004;DHT22;3542;48.812;9.146;2022-08-19T17:42:43;21.50;99.90
7004;DHT22;3542;48.812;9.146;2022-08-19T17:45:09;21.50;99.90
7004;DHT22;3542;48.812;9.146;2022-08-19T17:47:36;21.40;99.90